sensor_id;sensor_type;location;lat;lon;timestamp;pressure;altitude;pressure_sealevel;temperature;humidity
54850;BME280;47660;51.334;12.396;2024-03-22T00:02:06;100838.19;;;18.91;43.03
54850;BME280;47660;51.334;12.396;2024-03-22T00:04:31;100838.25;;;19.00;42.85
54850;BME280;47660;51.334;12.396;2024-03-22T00:06:56;100830.72;;;19.24;42.39
54850;BME280;47660;51.334;12.396;2024-03-22T00:09:22;100831.16;;;19.09;42.67
54850;BME280;47660;51.334;12.396;2024-03-22T00:11:47;100831.81;;;18.31;44.00
54850;BME280;47660;51.334;12.396;2024-03-22T00:14:12;100831.41;;;18.36;43.99
54850;BME280;47660;51.334;12.396;2024-03-22T00:16:38;100822.78;;;18.42;43.79
54850;BME280;47660;51.334;12.396;2024-03-22T00:19:04;100816.72;;;18.50;43.95
54850;BME280;47660;51.334;12.396;2024-03-22T00:21:29;100821.69;;;18.45;44.02
54850;BME280;47660;51.334;12.396;2024-03-22T00:23:55;100819.28;;;18.61;43.61
54850;BME280;47660;51.334;12.396;2024-03-22T00:26:20;100823.38;;;18.46;43.71
54850;BME280;47660;51.334;12.396;2024-03-22T00:28:46;100806.88;;;18.29;44.22
54850;BME280;47660;51.334;12.396;2024-03-22T00:31:11;100814.63;;;18.63;43.46
54850;BME280;47660;51.334;12.396;2024-03-22T00:33:36;100810.28;;;18.31;44.36
54850;BME280;47660;51.334;12.396;2024-03-22T00:36:02;100807.41;;;18.13;44.56
54850;BME280;47660;51.334;12.396;2024-03-22T00:38:27;100799.44;;;18.11;44.86
54850;BME280;47660;51.334;12.396;2024-03-22T00:40:52;100795.19;;;18.50;43.72
54850;BME280;47660;51.334;12.396;2024-03-22T00:43:19;100801.09;;;18.34;44.12
54850;BME280;47660;51.334;12.396;2024-03-22T00:45:44;100803.72;;;18.14;44.67
54850;BME280;47660;51.334;12.396;2024-03-22T00:48:09;100793.84;;;17.93;45.11
54850;BME280;47660;51.334;12.396;2024-03-22T00:50:35;100799.59;;;17.36;46.68
54850;BME280;47660;51.334;12.396;2024-03-22T00:53:00;100790.81;;;17.77;45.95
54850;BME280;47660;51.334;12.396;2024-03-22T00:55:28;100791.94;;;17.84;45.46
54850;BME280;47660;51.334;12.396;2024-03-22T00:57:53;100794.44;;;17.97;45.24
54850;BME280;47660;51.334;12.396;2024-03-22T01:00:18;100799.53;;;17.48;46.66
54850;BME280;47660;51.334;12.396;2024-03-22T01:02:44;100793.69;;;17.43;46.85
54850;BME280;47660;51.334;12.396;2024-03-22T01:05:09;100785.63;;;18.16;45.50
54850;BME280;47660;51.334;12.396;2024-03-22T01:07:36;100779.09;;;18.19;45.28
54850;BME280;47660;51.334;12.396;2024-03-22T01:10:01;100770.47;;;18.25;45.05
54850;BME280;47660;51.334;12.396;2024-03-22T01:12:27;100762.97;;;17.88;45.85
54850;BME280;47660;51.334;12.396;2024-03-22T01:14:52;100761.84;;;17.59;46.59
54850;BME280;47660;51.334;12.396;2024-03-22T01:17:17;100753.66;;;17.92;46.00
54850;BME280;47660;51.334;12.396;2024-03-22T01:19:43;100760.66;;;18.04;45.60
54850;BME280;47660;51.334;12.396;2024-03-22T01:22:08;100751.81;;;18.23;45.37
54850;BME280;47660;51.334;12.396;2024-03-22T01:24:33;100745.03;;;17.67;46.61
54850;BME280;47660;51.334;12.396;2024-03-22T01:26:59;100737.75;;;17.79;46.22
54850;BME280;47660;51.334;12.396;2024-03-22T01:29:24;100740.06;;;17.62;46.78
54850;BME280;47660;51.334;12.396;2024-03-22T01:31:49;100740.75;;;17.86;46.41
54850;BME280;47660;51.334;12.396;2024-03-22T01:34:14;100742.28;;;17.88;46.34
54850;BME280;47660;51.334;12.396;2024-03-22T01:36:40;100731.50;;;17.78;46.69
54850;BME280;47660;51.334;12.396;2024-03-22T01:39:05;100730.78;;;18.07;46.00
54850;BME280;47660;51.334;12.396;2024-03-22T01:41:30;100733.69;;;18.35;45.71
54850;BME280;47660;51.334;12.396;2024-03-22T01:43:58;100723.41;;;18.09;46.28
54850;BME280;47660;51.334;12.396;2024-03-22T01:46:23;100717.97;;;17.90;46.03
54850;BME280;47660;51.334;12.396;2024-03-22T01:48:49;100717.19;;;17.99;46.25
54850;BME280;47660;51.334;12.396;2024-03-22T01:51:15;100713.44;;;18.41;45.27
54850;BME280;47660;51.334;12.396;2024-03-22T01:53:41;100707.50;;;17.56;47.82
54850;BME280;47660;51.334;12.396;2024-03-22T01:56:06;100695.72;;;17.78;46.95
54850;BME280;47660;51.334;12.396;2024-03-22T01:58:32;100699.66;;;17.74;47.00
54850;BME280;47660;51.334;12.396;2024-03-22T02:00:58;100693.28;;;18.06;46.42
54850;BME280;47660;51.334;12.396;2024-03-22T02:03:23;100695.69;;;17.99;46.40
54850;BME280;47660;51.334;12.396;2024-03-22T02:05:49;100688.66;;;18.77;44.88
54850;BME280;47660;51.334;12.396;2024-03-22T02:08:14;100683.56;;;17.93;46.51
54850;BME280;47660;51.334;12.396;2024-03-22T02:10:39;100672.19;;;18.11;45.92
54850;BME280;47660;51.334;12.396;2024-03-22T02:13:04;100672.19;;;18.31;45.44
54850;BME280;47660;51.334;12.396;2024-03-22T02:15:30;100676.97;;;18.07;45.96
54850;BME280;47660;51.334;12.396;2024-03-22T02:17:55;100674.44;;;18.06;46.13
54850;BME280;47660;51.334;12.396;2024-03-22T02:20:20;100680.53;;;18.08;45.85
54850;BME280;47660;51.334;12.396;2024-03-22T02:22:46;100684.50;;;18.04;46.16
54850;BME280;47660;51.334;12.396;2024-03-22T02:25:11;100669.56;;;17.80;46.42
54850;BME280;47660;51.334;12.396;2024-03-22T02:27:38;100662.53;;;17.58;47.34
54850;BME280;47660;51.334;12.396;2024-03-22T02:30:04;100660.81;;;17.97;46.33
54850;BME280;47660;51.334;12.396;2024-03-22T02:32:29;100652.44;;;17.91;46.52
54850;BME280;47660;51.334;12.396;2024-03-22T02:34:54;100650.41;;;18.24;45.64
54850;BME280;47660;51.334;12.396;2024-03-22T02:37:20;100649.78;;;17.60;46.80
54850;BME280;47660;51.334;12.396;2024-03-22T02:39:45;100640.47;;;18.05;46.38
54850;BME280;47660;51.334;12.396;2024-03-22T02:42:10;100646.06;;;17.41;47.48
54850;BME280;47660;51.334;12.396;2024-03-22T02:44:36;100647.41;;;18.07;45.99
54850;BME280;47660;51.334;12.396;2024-03-22T02:47:07;100645.63;;;17.77;46.31
54850;BME280;47660;51.334;12.396;2024-03-22T02:49:32;100640.91;;;18.00;46.23
54850;BME280;47660;51.334;12.396;2024-03-22T02:51:57;100637.66;;;18.55;44.97
54850;BME280;47660;51.334;12.396;2024-03-22T02:54:23;100630.56;;;18.35;45.02
54850;BME280;47660;51.334;12.396;2024-03-22T02:56:48;100636.50;;;18.09;45.79
54850;BME280;47660;51.334;12.396;2024-03-22T02:59:13;100635.25;;;18.52;44.72
54850;BME280;47660;51.334;12.396;2024-03-22T03:01:39;100627.47;;;18.49;44.61
54850;BME280;47660;51.334;12.396;2024-03-22T03:04:04;100628.72;;;18.45;44.63
54850;BME280;47660;51.334;12.396;2024-03-22T03:06:29;100629.84;;;18.62;44.19
54850;BME280;47660;51.334;12.396;2024-03-22T03:08:54;100637.22;;;18.70;44.05
54850;BME280;47660;51.334;12.396;2024-03-22T03:11:20;100620.25;;;18.50;44.38
54850;BME280;47660;51.334;12.396;2024-03-22T03:13:45;100622.84;;;19.09;43.21
54850;BME280;47660;51.334;12.396;2024-03-22T03:16:10;100623.41;;;18.93;43.46
54850;BME280;47660;51.334;12.396;2024-03-22T03:18:36;100622.44;;;18.94;43.22
54850;BME280;47660;51.334;12.396;2024-03-22T03:21:01;100617.78;;;18.96;42.92
54850;BME280;47660;51.334;12.396;2024-03-22T03:23:26;100618.69;;;18.37;44.02
54850;BME280;47660;51.334;12.396;2024-03-22T03:25:51;100613.31;;;18.28;44.54
54850;BME280;47660;51.334;12.396;2024-03-22T03:28:17;100609.34;;;18.02;44.95
54850;BME280;47660;51.334;12.396;2024-03-22T03:30:43;100594.31;;;18.39;44.30
54850;BME280;47660;51.334;12.396;2024-03-22T03:33:08;100594.91;;;18.03;44.62
54850;BME280;47660;51.334;12.396;2024-03-22T03:35:33;100604.75;;;17.93;44.84
54850;BME280;47660;51.334;12.396;2024-03-22T03:37:59;100597.72;;;18.41;43.89
54850;BME280;47660;51.334;12.396;2024-03-22T03:40:24;100596.03;;;17.60;45.45
54850;BME280;47660;51.334;12.396;2024-03-22T03:42:52;100591.47;;;18.31;44.26
54850;BME280;47660;51.334;12.396;2024-03-22T03:45:18;100594.38;;;17.69;45.39
54850;BME280;47660;51.334;12.396;2024-03-22T03:47:43;100589.22;;;18.06;44.40
54850;BME280;47660;51.334;12.396;2024-03-22T03:50:08;100587.47;;;17.86;45.00
54850;BME280;47660;51.334;12.396;2024-03-22T03:52:34;100578.47;;;17.46;45.98
54850;BME280;47660;51.334;12.396;2024-03-22T03:54:59;100574.66;;;17.99;44.90
54850;BME280;47660;51.334;12.396;2024-03-22T03:57:24;100586.41;;;18.37;44.21
54850;BME280;47660;51.334;12.396;2024-03-22T03:59:50;100574.06;;;18.35;44.05
54850;BME280;47660;51.334;12.396;2024-03-22T04:02:15;100572.59;;;17.81;44.95
54850;BME280;47660;51.334;12.396;2024-03-22T04:04:40;100571.94;;;18.38;43.93
54850;BME280;47660;51.334;12.396;2024-03-22T04:07:06;100563.19;;;18.07;44.22
54850;BME280;47660;51.334;12.396;2024-03-22T04:09:31;100560.72;;;17.84;44.84
54850;BME280;47660;51.334;12.396;2024-03-22T04:11:57;100550.28;;;18.01;44.77
54850;BME280;47660;51.334;12.396;2024-03-22T04:14:24;100555.22;;;17.86;44.76
54850;BME280;47660;51.334;12.396;2024-03-22T04:16:49;100546.88;;;17.79;45.00
54850;BME280;47660;51.334;12.396;2024-03-22T04:19:15;100550.78;;;17.14;46.35
54850;BME280;47660;51.334;12.396;2024-03-22T04:21:40;100548.13;;;17.85;44.77
54850;BME280;47660;51.334;12.396;2024-03-22T04:24:05;100534.69;;;17.75;45.05
54850;BME280;47660;51.334;12.396;2024-03-22T04:26:31;100531.88;;;18.35;44.14
54850;BME280;47660;51.334;12.396;2024-03-22T04:28:56;100531.00;;;18.45;43.77
54850;BME280;47660;51.334;12.396;2024-03-22T04:31:22;100534.09;;;18.60;43.48
54850;BME280;47660;51.334;12.396;2024-03-22T04:33:47;100522.25;;;18.80;43.03
54850;BME280;47660;51.334;12.396;2024-03-22T04:36:12;100530.59;;;18.39;43.31
54850;BME280;47660;51.334;12.396;2024-03-22T04:38:38;100524.66;;;18.06;44.38
54850;BME280;47660;51.334;12.396;2024-03-22T04:41:03;100515.00;;;18.43;43.52
54850;BME280;47660;51.334;12.396;2024-03-22T04:43:29;100521.91;;;18.55;43.16
54850;BME280;47660;51.334;12.396;2024-03-22T04:45:54;100511.31;;;17.85;44.41
54850;BME280;47660;51.334;12.396;2024-03-22T04:48:21;100503.44;;;18.03;44.75
54850;BME280;47660;51.334;12.396;2024-03-22T04:50:47;100495.38;;;18.13;44.26
54850;BME280;47660;51.334;12.396;2024-03-22T04:53:15;100511.19;;;17.67;45.21
54850;BME280;47660;51.334;12.396;2024-03-22T04:55:42;100500.47;;;18.16;44.22
54850;BME280;47660;51.334;12.396;2024-03-22T04:58:17;100501.84;;;17.71;45.18
54850;BME280;47660;51.334;12.396;2024-03-22T05:00:43;100502.22;;;17.27;46.38
54850;BME280;47660;51.334;12.396;2024-03-22T05:03:09;100508.13;;;16.90;47.21
54850;BME280;47660;51.334;12.396;2024-03-22T05:05:34;100504.09;;;17.56;45.37
54850;BME280;47660;51.334;12.396;2024-03-22T05:08:00;100495.44;;;17.43;45.90
54850;BME280;47660;51.334;12.396;2024-03-22T05:10:26;100510.75;;;17.01;46.60
54850;BME280;47660;51.334;12.396;2024-03-22T05:12:51;100504.16;;;16.84;47.22
54850;BME280;47660;51.334;12.396;2024-03-22T05:15:17;100495.59;;;17.51;45.90
54850;BME280;47660;51.334;12.396;2024-03-22T05:17:42;100492.94;;;16.69;47.39
54850;BME280;47660;51.334;12.396;2024-03-22T05:20:08;100501.47;;;17.15;46.20
54850;BME280;47660;51.334;12.396;2024-03-22T05:22:37;100483.38;;;16.86;47.13
54850;BME280;47660;51.334;12.396;2024-03-22T05:25:02;100478.53;;;16.70;47.22
54850;BME280;47660;51.334;12.396;2024-03-22T05:27:28;100476.19;;;17.37;46.07
54850;BME280;47660;51.334;12.396;2024-03-22T05:29:53;100478.66;;;17.50;45.53
54850;BME280;47660;51.334;12.396;2024-03-22T05:32:19;100484.84;;;17.61;45.28
54850;BME280;47660;51.334;12.396;2024-03-22T05:34:44;100473.13;;;17.42;45.42
54850;BME280;47660;51.334;12.396;2024-03-22T05:37:09;100476.66;;;17.92;44.23
54850;BME280;47660;51.334;12.396;2024-03-22T05:39:36;100476.09;;;17.59;44.90
54850;BME280;47660;51.334;12.396;2024-03-22T05:42:01;100474.25;;;18.28;43.80
54850;BME280;47660;51.334;12.396;2024-03-22T05:44:26;100478.66;;;17.80;44.02
54850;BME280;47660;51.334;12.396;2024-03-22T05:46:52;100466.66;;;18.51;43.04
54850;BME280;47660;51.334;12.396;2024-03-22T05:49:17;100475.00;;;18.58;42.48
54850;BME280;47660;51.334;12.396;2024-03-22T05:51:43;100467.75;;;17.81;43.76
54850;BME280;47660;51.334;12.396;2024-03-22T05:54:09;100465.50;;;18.16;43.35
54850;BME280;47660;51.334;12.396;2024-03-22T05:56:35;100463.91;;;18.33;43.15
54850;BME280;47660;51.334;12.396;2024-03-22T05:59:00;100463.91;;;17.84;44.07
54850;BME280;47660;51.334;12.396;2024-03-22T06:01:26;100463.53;;;18.56;42.61
54850;BME280;47660;51.334;12.396;2024-03-22T06:03:51;100459.41;;;18.62;42.50
54850;BME280;47660;51.334;12.396;2024-03-22T06:06:23;100454.22;;;18.50;42.67
54850;BME280;47660;51.334;12.396;2024-03-22T06:08:51;100452.38;;;18.51;42.50
54850;BME280;47660;51.334;12.396;2024-03-22T06:11:20;100444.59;;;18.48;42.63
54850;BME280;47660;51.334;12.396;2024-03-22T06:13:49;100446.25;;;17.81;43.55
54850;BME280;47660;51.334;12.396;2024-03-22T06:16:14;100455.47;;;17.79;43.58
54850;BME280;47660;51.334;12.396;2024-03-22T06:18:47;100447.09;;;18.02;43.33
54850;BME280;47660;51.334;12.396;2024-03-22T06:21:13;100445.41;;;18.96;41.70
54850;BME280;47660;51.334;12.396;2024-03-22T06:23:40;100448.31;;;18.75;41.73
54850;BME280;47660;51.334;12.396;2024-03-22T06:26:05;100450.75;;;18.20;42.28
54850;BME280;47660;51.334;12.396;2024-03-22T06:28:30;100443.69;;;19.23;40.96
54850;BME280;47660;51.334;12.396;2024-03-22T06:30:56;100444.22;;;19.63;40.14
54850;BME280;47660;51.334;12.396;2024-03-22T06:33:21;100440.91;;;19.87;39.35
54850;BME280;47660;51.334;12.396;2024-03-22T06:35:46;100430.75;;;19.99;39.67
54850;BME280;47660;51.334;12.396;2024-03-22T06:38:12;100431.53;;;19.55;39.97
54850;BME280;47660;51.334;12.396;2024-03-22T06:40:38;100428.00;;;19.91;39.51
54850;BME280;47660;51.334;12.396;2024-03-22T06:43:03;100421.66;;;19.45;40.30
54850;BME280;47660;51.334;12.396;2024-03-22T06:45:28;100415.16;;;19.02;40.45
54850;BME280;47660;51.334;12.396;2024-03-22T06:47:54;100416.97;;;19.29;40.37
54850;BME280;47660;51.334;12.396;2024-03-22T06:50:20;100417.97;;;19.28;40.53
54850;BME280;47660;51.334;12.396;2024-03-22T06:52:54;100426.25;;;20.08;39.48
54850;BME280;47660;51.334;12.396;2024-03-22T06:55:22;100418.91;;;19.37;40.34
54850;BME280;47660;51.334;12.396;2024-03-22T06:57:49;100415.91;;;20.56;38.66
54850;BME280;47660;51.334;12.396;2024-03-22T07:00:18;100402.13;;;21.10;37.72
54850;BME280;47660;51.334;12.396;2024-03-22T07:02:44;100403.56;;;20.80;37.65
54850;BME280;47660;51.334;12.396;2024-03-22T07:05:10;100400.91;;;20.00;39.35
54850;BME280;47660;51.334;12.396;2024-03-22T07:07:36;100398.28;;;20.09;39.46
54850;BME280;47660;51.334;12.396;2024-03-22T07:10:02;100396.63;;;19.35;40.39
54850;BME280;47660;51.334;12.396;2024-03-22T07:12:27;100397.00;;;18.76;41.46
54850;BME280;47660;51.334;12.396;2024-03-22T07:14:53;100400.03;;;19.92;39.65
54850;BME280;47660;51.334;12.396;2024-03-22T07:17:18;100395.41;;;20.10;39.37
54850;BME280;47660;51.334;12.396;2024-03-22T07:19:49;100392.53;;;19.85;39.58
54850;BME280;47660;51.334;12.396;2024-03-22T07:22:14;100400.06;;;20.00;39.57
54850;BME280;47660;51.334;12.396;2024-03-22T07:24:39;100389.53;;;19.88;39.45
54850;BME280;47660;51.334;12.396;2024-03-22T07:27:04;100386.09;;;19.60;39.73
54850;BME280;47660;51.334;12.396;2024-03-22T07:29:30;100377.81;;;19.98;39.73
54850;BME280;47660;51.334;12.396;2024-03-22T07:31:55;100375.00;;;19.63;40.20
54850;BME280;47660;51.334;12.396;2024-03-22T07:34:20;100384.03;;;20.59;38.83
54850;BME280;47660;51.334;12.396;2024-03-22T07:36:46;100388.06;;;20.98;38.15
54850;BME280;47660;51.334;12.396;2024-03-22T07:39:11;100385.06;;;21.10;37.78
54850;BME280;47660;51.334;12.396;2024-03-22T07:41:36;100390.75;;;20.55;38.26
54850;BME280;47660;51.334;12.396;2024-03-22T07:44:01;100400.59;;;21.16;37.96
54850;BME280;47660;51.334;12.396;2024-03-22T07:46:27;100393.22;;;21.43;37.40
54850;BME280;47660;51.334;12.396;2024-03-22T07:48:53;100393.31;;;22.32;36.08
54850;BME280;47660;51.334;12.396;2024-03-22T07:51:22;100388.34;;;21.71;36.95
54850;BME280;47660;51.334;12.396;2024-03-22T07:53:47;100387.66;;;21.77;37.07
54850;BME280;47660;51.334;12.396;2024-03-22T07:56:12;100387.97;;;21.49;37.21
54850;BME280;47660;51.334;12.396;2024-03-22T07:58:38;100395.56;;;21.46;37.67
54850;BME280;47660;51.334;12.396;2024-03-22T08:01:04;100374.81;;;21.79;36.91
54850;BME280;47660;51.334;12.396;2024-03-22T08:03:29;100380.94;;;21.65;37.05
54850;BME280;47660;51.334;12.396;2024-03-22T08:05:54;100385.81;;;21.78;36.59
54850;BME280;47660;51.334;12.396;2024-03-22T08:08:19;100387.13;;;21.99;36.72
54850;BME280;47660;51.334;12.396;2024-03-22T08:10:45;100376.56;;;23.40;35.06
54850;BME280;47660;51.334;12.396;2024-03-22T08:13:10;100376.25;;;23.35;34.85
54850;BME280;47660;51.334;12.396;2024-03-22T08:15:36;100387.84;;;22.89;35.42
54850;BME280;47660;51.334;12.396;2024-03-22T08:18:01;100378.91;;;23.43;34.60
54850;BME280;47660;51.334;12.396;2024-03-22T08:20:27;100370.94;;;24.33;33.41
54850;BME280;47660;51.334;12.396;2024-03-22T08:22:53;100370.22;;;25.28;32.44
54850;BME280;47660;51.334;12.396;2024-03-22T08:25:19;100367.63;;;25.91;31.23
54850;BME280;47660;51.334;12.396;2024-03-22T08:27:46;100370.06;;;24.62;32.80
54850;BME280;47660;51.334;12.396;2024-03-22T08:30:11;100362.09;;;25.56;31.70
54850;BME280;47660;51.334;12.396;2024-03-22T08:32:37;100349.72;;;26.94;30.04
54850;BME280;47660;51.334;12.396;2024-03-22T08:35:02;100358.72;;;26.81;29.79
54850;BME280;47660;51.334;12.396;2024-03-22T08:37:29;100342.81;;;26.43;30.38
54850;BME280;47660;51.334;12.396;2024-03-22T08:39:54;100348.13;;;26.65;30.08
54850;BME280;47660;51.334;12.396;2024-03-22T08:42:19;100336.69;;;26.34;30.43
54850;BME280;47660;51.334;12.396;2024-03-22T08:44:45;100330.66;;;27.14;29.73
54850;BME280;47660;51.334;12.396;2024-03-22T08:47:10;100338.16;;;29.18;27.33
54850;BME280;47660;51.334;12.396;2024-03-22T08:49:35;100328.66;;;31.56;24.89
54850;BME280;47660;51.334;12.396;2024-03-22T08:52:01;100328.25;;;30.00;26.17
54850;BME280;47660;51.334;12.396;2024-03-22T08:54:27;100324.81;;;29.60;26.55
54850;BME280;47660;51.334;12.396;2024-03-22T08:56:52;100320.38;;;29.02;27.36
54850;BME280;47660;51.334;12.396;2024-03-22T08:59:17;100312.84;;;26.43;30.23
54850;BME280;47660;51.334;12.396;2024-03-22T09:01:43;100306.16;;;25.75;31.08
54850;BME280;47660;51.334;12.396;2024-03-22T09:04:08;100306.66;;;25.35;31.72
54850;BME280;47660;51.334;12.396;2024-03-22T09:06:33;100292.44;;;25.62;31.60
54850;BME280;47660;51.334;12.396;2024-03-22T09:08:58;100296.28;;;24.29;33.15
54850;BME280;47660;51.334;12.396;2024-03-22T09:11:24;100303.56;;;24.58;33.26
54850;BME280;47660;51.334;12.396;2024-03-22T09:13:53;100294.16;;;24.98;32.54
54850;BME280;47660;51.334;12.396;2024-03-22T09:16:20;100286.59;;;26.00;31.30
54850;BME280;47660;51.334;12.396;2024-03-22T09:18:45;100285.34;;;27.40;29.59
54850;BME280;47660;51.334;12.396;2024-03-22T09:21:11;100274.41;;;27.34;29.19
54850;BME280;47660;51.334;12.396;2024-03-22T09:23:36;100268.56;;;29.07;27.63
54850;BME280;47660;51.334;12.396;2024-03-22T09:26:02;100256.75;;;30.01;26.50
54850;BME280;47660;51.334;12.396;2024-03-22T09:28:27;100260.94;;;31.74;24.73
54850;BME280;47660;51.334;12.396;2024-03-22T09:30:52;100262.41;;;32.29;23.99
54850;BME280;47660;51.334;12.396;2024-03-22T09:33:18;100260.47;;;32.58;23.40
54850;BME280;47660;51.334;12.396;2024-03-22T09:35:43;100256.88;;;32.87;23.27
54850;BME280;47660;51.334;12.396;2024-03-22T09:38:09;100256.53;;;32.83;23.01
54850;BME280;47660;51.334;12.396;2024-03-22T09:40:34;100255.25;;;32.57;23.34
54850;BME280;47660;51.334;12.396;2024-03-22T09:43:02;100259.81;;;31.15;24.97
54850;BME280;47660;51.334;12.396;2024-03-22T09:45:31;100260.25;;;29.20;26.96
54850;BME280;47660;51.334;12.396;2024-03-22T09:47:56;100258.19;;;29.85;26.25
54850;BME280;47660;51.334;12.396;2024-03-22T09:50:23;100252.41;;;28.28;28.16
54850;BME280;47660;51.334;12.396;2024-03-22T09:52:48;100248.63;;;27.36;29.03
54850;BME280;47660;51.334;12.396;2024-03-22T09:55:14;100246.00;;;26.54;30.13
54850;BME280;47660;51.334;12.396;2024-03-22T09:57:40;100241.69;;;27.40;29.59
54850;BME280;47660;51.334;12.396;2024-03-22T10:00:07;100233.44;;;27.81;28.71
54850;BME280;47660;51.334;12.396;2024-03-22T10:02:33;100237.44;;;26.77;30.15
54850;BME280;47660;51.334;12.396;2024-03-22T10:04:58;100242.00;;;26.57;30.83
54850;BME280;47660;51.334;12.396;2024-03-22T10:07:25;100234.50;;;26.65;30.40
54850;BME280;47660;51.334;12.396;2024-03-22T10:09:51;100231.09;;;26.43;30.52
54850;BME280;47660;51.334;12.396;2024-03-22T10:12:17;100222.78;;;27.19;29.39
54850;BME280;47660;51.334;12.396;2024-03-22T10:14:43;100224.00;;;26.62;30.01
54850;BME280;47660;51.334;12.396;2024-03-22T10:17:09;100221.69;;;26.66;30.17
54850;BME280;47660;51.334;12.396;2024-03-22T10:19:35;100216.34;;;25.82;31.24
54850;BME280;47660;51.334;12.396;2024-03-22T10:22:04;100217.50;;;26.08;30.74
54850;BME280;47660;51.334;12.396;2024-03-22T10:24:30;100212.78;;;26.17;31.00
54850;BME280;47660;51.334;12.396;2024-03-22T10:26:56;100207.88;;;26.12;30.95
54850;BME280;47660;51.334;12.396;2024-03-22T10:29:21;100205.19;;;24.85;32.62
54850;BME280;47660;51.334;12.396;2024-03-22T10:31:53;100209.88;;;25.19;32.79
54850;BME280;47660;51.334;12.396;2024-03-22T10:34:22;100196.66;;;26.29;31.28
54850;BME280;47660;51.334;12.396;2024-03-22T10:36:49;100192.97;;;26.63;30.52
54850;BME280;47660;51.334;12.396;2024-03-22T10:39:18;100192.38;;;26.88;30.57
54850;BME280;47660;51.334;12.396;2024-03-22T10:41:45;100194.44;;;26.04;31.40
54850;BME280;47660;51.334;12.396;2024-03-22T10:44:12;100190.34;;;24.66;33.42
54850;BME280;47660;51.334;12.396;2024-03-22T10:46:37;100193.09;;;25.44;32.50
54850;BME280;47660;51.334;12.396;2024-03-22T10:49:04;100183.72;;;26.51;31.41
54850;BME280;47660;51.334;12.396;2024-03-22T10:51:32;100186.22;;;26.46;31.41
54850;BME280;47660;51.334;12.396;2024-03-22T10:53:59;100178.94;;;27.00;30.65
54850;BME280;47660;51.334;12.396;2024-03-22T10:56:26;100170.75;;;27.00;30.72
54850;BME280;47660;51.334;12.396;2024-03-22T10:58:52;100170.28;;;27.37;30.20
54850;BME280;47660;51.334;12.396;2024-03-22T11:01:25;100173.56;;;27.79;29.37
54850;BME280;47660;51.334;12.396;2024-03-22T11:03:51;100170.53;;;28.01;29.17
54850;BME280;47660;51.334;12.396;2024-03-22T11:06:20;100158.22;;;28.88;28.54
54850;BME280;47660;51.334;12.396;2024-03-22T11:08:51;100157.97;;;28.96;28.02
54850;BME280;47660;51.334;12.396;2024-03-22T11:11:18;100147.97;;;29.27;27.90
54850;BME280;47660;51.334;12.396;2024-03-22T11:13:47;100148.25;;;30.12;26.51
54850;BME280;47660;51.334;12.396;2024-03-22T11:16:15;100139.00;;;29.76;26.66
54850;BME280;47660;51.334;12.396;2024-03-22T11:18:41;100134.31;;;29.46;27.41
54850;BME280;47660;51.334;12.396;2024-03-22T11:21:07;100134.59;;;29.75;27.26
54850;BME280;47660;51.334;12.396;2024-03-22T11:23:35;100132.75;;;30.48;26.17
54850;BME280;47660;51.334;12.396;2024-03-22T11:26:01;100133.78;;;30.35;26.55
54850;BME280;47660;51.334;12.396;2024-03-22T11:28:26;100115.63;;;31.36;25.35
54850;BME280;47660;51.334;12.396;2024-03-22T11:30:51;100118.31;;;29.80;26.54
54850;BME280;47660;51.334;12.396;2024-03-22T11:33:17;100116.72;;;29.16;27.68
54850;BME280;47660;51.334;12.396;2024-03-22T11:35:43;100116.00;;;29.96;27.34
54850;BME280;47660;51.334;12.396;2024-03-22T11:38:09;100109.63;;;30.56;26.78
54850;BME280;47660;51.334;12.396;2024-03-22T11:40:34;100109.06;;;29.62;27.50
54850;BME280;47660;51.334;12.396;2024-03-22T11:43:01;100105.94;;;29.77;27.56
54850;BME280;47660;51.334;12.396;2024-03-22T11:45:28;100101.00;;;30.29;27.19
54850;BME280;47660;51.334;12.396;2024-03-22T11:47:53;100087.94;;;30.12;27.09
54850;BME280;47660;51.334;12.396;2024-03-22T11:50:19;100087.59;;;29.22;27.90
54850;BME280;47660;51.334;12.396;2024-03-22T11:52:45;100083.78;;;27.57;29.79
54850;BME280;47660;51.334;12.396;2024-03-22T11:55:14;100084.66;;;27.90;29.96
54850;BME280;47660;51.334;12.396;2024-03-22T11:57:39;100076.28;;;28.49;29.32
54850;BME280;47660;51.334;12.396;2024-03-22T12:00:05;100075.72;;;28.40;29.27
54850;BME280;47660;51.334;12.396;2024-03-22T12:02:38;100074.34;;;28.82;29.18
54850;BME280;47660;51.334;12.396;2024-03-22T12:05:04;100070.19;;;29.16;28.63
54850;BME280;47660;51.334;12.396;2024-03-22T12:07:29;100069.53;;;28.26;29.62
54850;BME280;47660;51.334;12.396;2024-03-22T12:09:55;100064.44;;;28.30;29.26
54850;BME280;47660;51.334;12.396;2024-03-22T12:12:21;100064.84;;;28.59;29.33
54850;BME280;47660;51.334;12.396;2024-03-22T12:14:47;100055.38;;;29.05;28.84
54850;BME280;47660;51.334;12.396;2024-03-22T12:17:12;100048.06;;;28.99;28.98
54850;BME280;47660;51.334;12.396;2024-03-22T12:19:37;100048.38;;;29.10;28.92
54850;BME280;47660;51.334;12.396;2024-03-22T12:22:03;100048.03;;;28.30;29.60
54850;BME280;47660;51.334;12.396;2024-03-22T12:24:28;100046.69;;;28.65;29.51
54850;BME280;47660;51.334;12.396;2024-03-22T12:26:53;100041.06;;;28.59;29.71
54850;BME280;47660;51.334;12.396;2024-03-22T12:29:19;100031.72;;;29.11;29.15
54850;BME280;47660;51.334;12.396;2024-03-22T12:31:44;100017.13;;;29.36;28.84
54850;BME280;47660;51.334;12.396;2024-03-22T12:34:10;100018.56;;;29.57;28.49